sensor_id;sensor_type;location;lat;lon;timestamp;P1;durP1;ratioP1;P2;durP2;ratioP2
71360;SDS011;59166;48.908;1.870;2023-02-28T00:03:59;17.17;;;6.43;;
71360;SDS011;59166;48.908;1.870;2023-02-28T00:09:00;13.85;;;6.07;;
71360;SDS011;59166;48.908;1.870;2023-02-28T00:14:02;16.23;;;6.20;;
71360;SDS011;59166;48.908;1.870;2023-02-28T00:19:03;14.00;;;6.10;;
71360;SDS011;59166;48.908;1.870;2023-02-28T00:24:04;12.88;;;5.78;;
71360;SDS011;59166;48.908;1.870;2023-02-28T00:29:07;12.63;;;5.87;;
71360;SDS011;59166;48.908;1.870;2023-02-28T00:34:08;18.63;;;5.97;;
71360;SDS011;59166;48.908;1.870;2023-02-28T00:39:08;16.25;;;6.57;;
71360;SDS011;59166;48.908;1.870;2023-02-28T00:44:11;14.57;;;6.10;;
71360;SDS011;59166;48.908;1.870;2023-02-28T00:49:12;15.95;;;6.75;;
71360;SDS011;59166;48.908;1.870;2023-02-28T00:54:13;17.73;;;6.63;;
71360;SDS011;59166;48.908;1.870;2023-02-28T00:59:15;17.60;;;7.13;;
71360;SDS011;59166;48.908;1.870;2023-02-28T01:04:17;17.13;;;7.18;;
71360;SDS011;59166;48.908;1.870;2023-02-28T01:09:18;17.47;;;7.53;;
71360;SDS011;59166;48.908;1.870;2023-02-28T01:14:21;17.40;;;7.55;;
71360;SDS011;59166;48.908;1.870;2023-02-28T01:19:22;16.93;;;6.60;;
71360;SDS011;59166;48.908;1.870;2023-02-28T01:24:23;18.93;;;7.60;;
71360;SDS011;59166;48.908;1.870;2023-02-28T01:29:25;17.63;;;7.03;;
71360;SDS011;59166;48.908;1.870;2023-02-28T01:34:26;15.63;;;6.63;;
71360;SDS011;59166;48.908;1.870;2023-02-28T01:39:27;16.92;;;7.03;;
71360;SDS011;59166;48.908;1.870;2023-02-28T01:50:01;14.27;;;6.07;;
71360;SDS011;59166;48.908;1.870;2023-02-28T01:55:05;14.80;;;5.88;;
71360;SDS011;59166;48.908;1.870;2023-02-28T02:00:09;16.20;;;6.43;;
71360;SDS011;59166;48.908;1.870;2023-02-28T02:05:13;12.13;;;4.22;;
71360;SDS011;59166;48.908;1.870;2023-02-28T02:10:16;17.45;;;5.80;;
71360;SDS011;59166;48.908;1.870;2023-02-28T02:15:20;14.63;;;6.23;;
71360;SDS011;59166;48.908;1.870;2023-02-28T02:20:38;16.27;;;6.60;;
71360;SDS011;59166;48.908;1.870;2023-02-28T02:25:59;14.80;;;6.18;;
71360;SDS011;59166;48.908;1.870;2023-02-28T02:31:21;14.52;;;6.55;;
71360;SDS011;59166;48.908;1.870;2023-02-28T02:36:44;16.37;;;6.67;;
71360;SDS011;59166;48.908;1.870;2023-02-28T02:41:49;18.58;;;7.32;;
71360;SDS011;59166;48.908;1.870;2023-02-28T02:46:52;18.25;;;7.47;;
71360;SDS011;59166;48.908;1.870;2023-02-28T02:52:00;22.43;;;8.80;;
71360;SDS011;59166;48.908;1.870;2023-02-28T02:57:22;20.13;;;8.95;;
71360;SDS011;59166;48.908;1.870;2023-02-28T03:02:27;19.83;;;7.93;;
71360;SDS011;59166;48.908;1.870;2023-02-28T03:07:31;15.70;;;6.47;;
71360;SDS011;59166;48.908;1.870;2023-02-28T03:12:44;17.27;;;7.03;;
71360;SDS011;59166;48.908;1.870;2023-02-28T03:17:59;17.23;;;6.35;;
71360;SDS011;59166;48.908;1.870;2023-02-28T03:23:10;21.65;;;7.50;;
71360;SDS011;59166;48.908;1.870;2023-02-28T03:28:17;16.07;;;6.97;;
71360;SDS011;59166;48.908;1.870;2023-02-28T03:33:26;18.48;;;7.22;;
71360;SDS011;59166;48.908;1.870;2023-02-28T03:38:33;21.05;;;7.22;;
71360;SDS011;59166;48.908;1.870;2023-02-28T03:43:39;19.37;;;7.60;;
71360;SDS011;59166;48.908;1.870;2023-02-28T03:48:43;23.35;;;8.55;;
71360;SDS011;59166;48.908;1.870;2023-02-28T03:53:52;20.10;;;7.10;;
71360;SDS011;59166;48.908;1.870;2023-02-28T03:58:57;19.57;;;8.53;;
71360;SDS011;59166;48.908;1.870;2023-02-28T04:04:02;17.77;;;7.30;;
71360;SDS011;59166;48.908;1.870;2023-02-28T04:09:06;17.25;;;6.88;;
71360;SDS011;59166;48.908;1.870;2023-02-28T04:14:09;18.38;;;7.95;;
71360;SDS011;59166;48.908;1.870;2023-02-28T04:19:12;18.70;;;7.60;;
71360;SDS011;59166;48.908;1.870;2023-02-28T04:24:16;18.88;;;7.53;;
71360;SDS011;59166;48.908;1.870;2023-02-28T04:29:19;18.15;;;6.80;;
71360;SDS011;59166;48.908;1.870;2023-02-28T04:34:22;23.83;;;8.10;;
71360;SDS011;59166;48.908;1.870;2023-02-28T04:39:24;22.58;;;9.00;;
71360;SDS011;59166;48.908;1.870;2023-02-28T04:44:25;23.92;;;9.30;;
71360;SDS011;59166;48.908;1.870;2023-02-28T04:49:26;24.57;;;8.97;;
71360;SDS011;59166;48.908;1.870;2023-02-28T04:54:28;19.65;;;7.22;;
71360;SDS011;59166;48.908;1.870;2023-02-28T04:59:29;22.45;;;8.80;;
71360;SDS011;59166;48.908;1.870;2023-02-28T05:04:31;21.47;;;8.53;;
71360;SDS011;59166;48.908;1.870;2023-02-28T05:09:33;14.32;;;5.40;;
71360;SDS011;59166;48.908;1.870;2023-02-28T05:14:34;16.55;;;7.15;;
71360;SDS011;59166;48.908;1.870;2023-02-28T05:19:35;17.10;;;7.47;;
71360;SDS011;59166;48.908;1.870;2023-02-28T05:24:37;18.95;;;7.28;;
71360;SDS011;59166;48.908;1.870;2023-02-28T05:29:38;15.90;;;6.70;;
71360;SDS011;59166;48.908;1.870;2023-02-28T05:34:39;18.65;;;7.50;;
71360;SDS011;59166;48.908;1.870;2023-02-28T05:39:42;19.75;;;6.45;;
71360;SDS011;59166;48.908;1.870;2023-02-28T05:44:43;16.27;;;5.90;;
71360;SDS011;59166;48.908;1.870;2023-02-28T05:49:44;19.98;;;7.90;;
71360;SDS011;59166;48.908;1.870;2023-02-28T05:54:47;17.73;;;7.63;;
71360;SDS011;59166;48.908;1.870;2023-02-28T05:59:48;17.60;;;6.80;;
71360;SDS011;59166;48.908;1.870;2023-02-28T06:04:49;22.00;;;8.38;;
71360;SDS011;59166;48.908;1.870;2023-02-28T06:09:51;18.50;;;7.53;;
71360;SDS011;59166;48.908;1.870;2023-02-28T06:14:52;20.08;;;7.70;;
71360;SDS011;59166;48.908;1.870;2023-02-28T06:19:53;17.02;;;7.40;;
71360;SDS011;59166;48.908;1.870;2023-02-28T06:24:56;20.77;;;7.43;;
71360;SDS011;59166;48.908;1.870;2023-02-28T06:29:57;22.15;;;8.20;;
71360;SDS011;59166;48.908;1.870;2023-02-28T06:34:58;21.63;;;8.55;;
71360;SDS011;59166;48.908;1.870;2023-02-28T06:40:00;22.90;;;8.63;;
71360;SDS011;59166;48.908;1.870;2023-02-28T06:45:01;22.17;;;8.18;;
71360;SDS011;59166;48.908;1.870;2023-02-28T06:50:02;22.27;;;8.45;;
71360;SDS011;59166;48.908;1.870;2023-02-28T06:55:05;18.57;;;7.43;;
71360;SDS011;59166;48.908;1.870;2023-02-28T07:00:08;22.45;;;8.43;;
71360;SDS011;59166;48.908;1.870;2023-02-28T07:05:10;12.70;;;6.03;;
71360;SDS011;59166;48.908;1.870;2023-02-28T07:10:12;22.13;;;8.87;;
71360;SDS011;59166;48.908;1.870;2023-02-28T07:15:13;23.73;;;9.38;;
71360;SDS011;59166;48.908;1.870;2023-02-28T07:20:14;24.85;;;9.15;;
71360;SDS011;59166;48.908;1.870;2023-02-28T07:25:17;22.20;;;9.70;;
71360;SDS011;59166;48.908;1.870;2023-02-28T07:30:18;26.05;;;10.30;;
71360;SDS011;59166;48.908;1.870;2023-02-28T07:35:19;17.38;;;7.43;;
71360;SDS011;59166;48.908;1.870;2023-02-28T07:40:21;18.03;;;7.03;;
71360;SDS011;59166;48.908;1.870;2023-02-28T07:45:22;23.65;;;9.32;;
71360;SDS011;59166;48.908;1.870;2023-02-28T07:50:23;28.67;;;12.43;;
71360;SDS011;59166;48.908;1.870;2023-02-28T07:55:25;23.08;;;7.53;;
71360;SDS011;59166;48.908;1.870;2023-02-28T08:00:27;29.30;;;11.88;;
71360;SDS011;59166;48.908;1.870;2023-02-28T08:05:28;29.70;;;11.90;;
71360;SDS011;59166;48.908;1.870;2023-02-28T08:10:30;27.42;;;11.13;;
71360;SDS011;59166;48.908;1.870;2023-02-28T08:15:31;23.92;;;10.63;;
71360;SDS011;59166;48.908;1.870;2023-02-28T08:20:32;24.30;;;10.20;;
71360;SDS011;59166;48.908;1.870;2023-02-28T08:25:34;23.98;;;9.80;;
71360;SDS011;59166;48.908;1.870;2023-02-28T08:30:35;26.87;;;11.43;;
71360;SDS011;59166;48.908;1.870;2023-02-28T08:35:36;24.08;;;10.23;;
71360;SDS011;59166;48.908;1.870;2023-02-28T08:40:39;13.98;;;6.40;;
71360;SDS011;59166;48.908;1.870;2023-02-28T08:45:40;24.07;;;11.23;;
71360;SDS011;59166;48.908;1.870;2023-02-28T08:50:43;24.05;;;10.45;;
71360;SDS011;59166;48.908;1.870;2023-02-28T08:55:46;22.10;;;9.80;;
71360;SDS011;59166;48.908;1.870;2023-02-28T09:00:47;23.77;;;10.33;;
71360;SDS011;59166;48.908;1.870;2023-02-28T09:05:54;22.50;;;10.65;;
71360;SDS011;59166;48.908;1.870;2023-02-28T09:10:57;20.93;;;9.03;;
71360;SDS011;59166;48.908;1.870;2023-02-28T09:15:59;22.80;;;10.17;;
71360;SDS011;59166;48.908;1.870;2023-02-28T09:21:02;17.40;;;7.43;;
71360;SDS011;59166;48.908;1.870;2023-02-28T09:26:05;19.25;;;9.25;;
71360;SDS011;59166;48.908;1.870;2023-02-28T09:31:10;18.37;;;7.70;;
71360;SDS011;59166;48.908;1.870;2023-02-28T09:36:12;18.85;;;9.02;;
71360;SDS011;59166;48.908;1.870;2023-02-28T09:41:15;19.17;;;8.10;;
71360;SDS011;59166;48.908;1.870;2023-02-28T09:46:21;16.87;;;8.37;;
71360;SDS011;59166;48.908;1.870;2023-02-28T09:51:34;18.08;;;8.40;;
71360;SDS011;59166;48.908;1.870;2023-02-28T09:57:04;15.93;;;6.88;;
71360;SDS011;59166;48.908;1.870;2023-02-28T10:02:12;16.17;;;7.70;;
71360;SDS011;59166;48.908;1.870;2023-02-28T10:07:28;16.95;;;7.43;;
71360;SDS011;59166;48.908;1.870;2023-02-28T10:12:44;11.13;;;4.63;;
71360;SDS011;59166;48.908;1.870;2023-02-28T10:17:47;14.07;;;6.40;;
71360;SDS011;59166;48.908;1.870;2023-02-28T10:22:56;14.63;;;6.63;;
71360;SDS011;59166;48.908;1.870;2023-02-28T10:28:04;12.55;;;5.78;;
71360;SDS011;59166;48.908;1.870;2023-02-28T10:33:15;12.17;;;5.80;;
71360;SDS011;59166;48.908;1.870;2023-02-28T10:38:22;11.73;;;5.33;;
71360;SDS011;59166;48.908;1.870;2023-02-28T10:43:26;11.00;;;4.57;;
71360;SDS011;59166;48.908;1.870;2023-02-28T10:48:29;12.75;;;5.78;;
71360;SDS011;59166;48.908;1.870;2023-02-28T10:53:34;10.83;;;4.40;;
71360;SDS011;59166;48.908;1.870;2023-02-28T10:58:45;10.32;;;4.28;;
71360;SDS011;59166;48.908;1.870;2023-02-28T11:03:52;9.80;;;3.92;;
71360;SDS011;59166;48.908;1.870;2023-02-28T11:08:54;9.10;;;3.77;;
71360;SDS011;59166;48.908;1.870;2023-02-28T11:13:58;7.65;;;3.17;;
71360;SDS011;59166;48.908;1.870;2023-02-28T11:19:22;9.90;;;3.80;;
71360;SDS011;59166;48.908;1.870;2023-02-28T11:24:26;10.10;;;4.17;;
71360;SDS011;59166;48.908;1.870;2023-02-28T11:29:32;8.30;;;3.80;;
71360;SDS011;59166;48.908;1.870;2023-02-28T11:34:35;7.47;;;3.10;;
71360;SDS011;59166;48.908;1.870;2023-02-28T11:39:37;10.35;;;4.47;;
71360;SDS011;59166;48.908;1.870;2023-02-28T11:44:43;11.73;;;4.63;;
71360;SDS011;59166;48.908;1.870;2023-02-28T11:50:01;8.57;;;2.90;;
71360;SDS011;59166;48.908;1.870;2023-02-28T11:55:15;10.38;;;4.50;;
71360;SDS011;59166;48.908;1.870;2023-02-28T12:00:26;12.23;;;4.80;;
71360;SDS011;59166;48.908;1.870;2023-02-28T12:05:45;11.23;;;4.60;;
71360;SDS011;59166;48.908;1.870;2023-02-28T12:10:52;11.00;;;4.68;;
71360;SDS011;59166;48.908;1.870;2023-02-28T12:16:22;6.13;;;2.70;;
71360;SDS011;59166;48.908;1.870;2023-02-28T12:21:39;8.83;;;4.00;;
71360;SDS011;59166;48.908;1.870;2023-02-28T12:26:54;11.05;;;4.60;;
71360;SDS011;59166;48.908;1.870;2023-02-28T12:32:01;9.38;;;4.07;;
71360;SDS011;59166;48.908;1.870;2023-02-28T12:37:07;8.07;;;3.00;;
71360;SDS011;59166;48.908;1.870;2023-02-28T12:42:22;9.77;;;4.15;;
71360;SDS011;59166;48.908;1.870;2023-02-28T12:47:44;9.98;;;3.45;;
71360;SDS011;59166;48.908;1.870;2023-02-28T12:52:51;9.53;;;4.23;;
71360;SDS011;59166;48.908;1.870;2023-02-28T12:58:01;9.32;;;3.92;;
71360;SDS011;59166;48.908;1.870;2023-02-28T13:03:17;8.55;;;3.25;;
71360;SDS011;59166;48.908;1.870;2023-02-28T13:14:23;9.70;;;4.00;;
71360;SDS011;59166;48.908;1.870;2023-02-28T13:19:28;8.30;;;3.17;;
71360;SDS011;59166;48.908;1.870;2023-02-28T13:24:46;9.07;;;3.42;;
71360;SDS011;59166;48.908;1.870;2023-02-28T13:29:48;8.57;;;3.47;;
71360;SDS011;59166;48.908;1.870;2023-02-28T13:40:35;10.32;;;4.13;;
71360;SDS011;59166;48.908;1.870;2023-02-28T13:45:35;9.77;;;4.50;;
71360;SDS011;59166;48.908;1.870;2023-02-28T13:50:38;9.65;;;4.20;;
71360;SDS011;59166;48.908;1.870;2023-02-28T13:55:41;8.90;;;3.73;;
71360;SDS011;59166;48.908;1.870;2023-02-28T14:06:26;9.50;;;3.90;;
71360;SDS011;59166;48.908;1.870;2023-02-28T14:11:30;8.47;;;3.47;;
71360;SDS011;59166;48.908;1.870;2023-02-28T14:16:35;7.82;;;3.13;;
71360;SDS011;59166;48.908;1.870;2023-02-28T14:21:43;7.88;;;3.35;;
71360;SDS011;59166;48.908;1.870;2023-02-28T14:32:21;9.80;;;4.40;;
71360;SDS011;59166;48.908;1.870;2023-02-28T14:37:29;8.38;;;3.42;;
71360;SDS011;59166;48.908;1.870;2023-02-28T14:42:37;10.95;;;4.90;;
71360;SDS011;59166;48.908;1.870;2023-02-28T14:47:38;9.87;;;3.43;;
71360;SDS011;59166;48.908;1.870;2023-02-28T14:52:42;9.80;;;4.27;;
71360;SDS011;59166;48.908;1.870;2023-02-28T14:57:50;12.32;;;5.07;;
71360;SDS011;59166;48.908;1.870;2023-02-28T15:02:51;8.35;;;2.90;;
71360;SDS011;59166;48.908;1.870;2023-02-28T15:08:04;9.47;;;4.43;;
71360;SDS011;59166;48.908;1.870;2023-02-28T15:13:07;10.80;;;5.03;;
71360;SDS011;59166;48.908;1.870;2023-02-28T15:18:15;8.98;;;3.72;;
71360;SDS011;59166;48.908;1.870;2023-02-28T15:23:25;7.80;;;3.00;;
71360;SDS011;59166;48.908;1.870;2023-02-28T15:28:26;11.43;;;4.73;;
71360;SDS011;59166;48.908;1.870;2023-02-28T15:33:28;9.80;;;3.92;;
71360;SDS011;59166;48.908;1.870;2023-02-28T15:38:33;10.57;;;4.82;;
71360;SDS011;59166;48.908;1.870;2023-02-28T15:43:35;10.40;;;4.23;;
71360;SDS011;59166;48.908;1.870;2023-02-28T15:48:38;10.13;;;4.93;;
71360;SDS011;59166;48.908;1.870;2023-02-28T15:53:47;11.20;;;4.57;;
71360;SDS011;59166;48.908;1.870;2023-02-28T15:58:50;9.27;;;4.30;;
71360;SDS011;59166;48.908;1.870;2023-02-28T16:03:55;10.05;;;4.05;;
71360;SDS011;59166;48.908;1.870;2023-02-28T16:08:58;10.77;;;4.50;;
71360;SDS011;59166;48.908;1.870;2023-02-28T16:13:59;9.70;;;4.53;;
71360;SDS011;59166;48.908;1.870;2023-02-28T16:19:00;11.83;;;5.10;;
71360;SDS011;59166;48.908;1.870;2023-02-28T16:24:02;10.93;;;4.90;;
71360;SDS011;59166;48.908;1.870;2023-02-28T16:29:03;10.50;;;4.20;;
71360;SDS011;59166;48.908;1.870;2023-02-28T16:34:04;11.17;;;4.83;;
71360;SDS011;59166;48.908;1.870;2023-02-28T16:39:06;10.60;;;4.80;;
71360;SDS011;59166;48.908;1.870;2023-02-28T16:44:08;10.43;;;4.40;;
71360;SDS011;59166;48.908;1.870;2023-02-28T16:49:14;9.70;;;4.28;;
71360;SDS011;59166;48.908;1.870;2023-02-28T16:54:16;10.43;;;4.47;;
71360;SDS011;59166;48.908;1.870;2023-02-28T16:59:18;9.93;;;4.28;;
71360;SDS011;59166;48.908;1.870;2023-02-28T17:04:21;9.47;;;4.10;;
71360;SDS011;59166;48.908;1.870;2023-02-28T17:09:23;11.45;;;4.30;;
71360;SDS011;59166;48.908;1.870;2023-02-28T17:14:24;9.30;;;3.97;;
71360;SDS011;59166;48.908;1.870;2023-02-28T17:19:25;9.38;;;4.15;;
71360;SDS011;59166;48.908;1.870;2023-02-28T17:24:27;9.83;;;4.33;;
71360;SDS011;59166;48.908;1.870;2023-02-28T17:29:27;11.00;;;4.90;;
71360;SDS011;59166;48.908;1.870;2023-02-28T17:34:28;10.47;;;4.40;;
71360;SDS011;59166;48.908;1.870;2023-02-28T17:39:30;10.50;;;4.90;;
71360;SDS011;59166;48.908;1.870;2023-02-28T17:44:31;15.27;;;5.25;;
71360;SDS011;59166;48.908;1.870;2023-02-28T17:49:33;13.25;;;5.78;;
71360;SDS011;59166;48.908;1.870;2023-02-28T17:54:35;11.20;;;4.83;;
71360;SDS011;59166;48.908;1.870;2023-02-28T17:59:35;10.98;;;4.60;;
71360;SDS011;59166;48.908;1.870;2023-02-28T18:04:36;9.83;;;4.27;;
71360;SDS011;59166;48.908;1.870;2023-02-28T18:09:38;10.57;;;4.20;;
71360;SDS011;59166;48.908;1.870;2023-02-28T18:14:38;9.80;;;4.28;;
71360;SDS011;59166;48.908;1.870;2023-02-28T18:19:39;11.00;;;4.60;;
71360;SDS011;59166;48.908;1.870;2023-02-28T18:24:42;12.07;;;4.72;;
71360;SDS011;59166;48.908;1.870;2023-02-28T18:29:42;10.57;;;4.63;;
71360;SDS011;59166;48.908;1.870;2023-02-28T18:34:43;10.23;;;4.50;;
71360;SDS011;59166;48.908;1.870;2023-02-28T18:39:45;10.55;;;4.90;;
71360;SDS011;59166;48.908;1.870;2023-02-28T18:44:46;11.27;;;4.47;;
71360;SDS011;59166;48.908;1.870;2023-02-28T18:49:46;9.40;;;3.97;;
71360;SDS011;59166;48.908;1.870;2023-02-28T18:54:48;11.25;;;3.90;;
71360;SDS011;59166;48.908;1.870;2023-02-28T18:59:49;11.93;;;4.93;;
71360;SDS011;59166;48.908;1.870;2023-02-28T19:04:50;12.57;;;5.57;;
71360;SDS011;59166;48.908;1.870;2023-02-28T19:09:52;12.77;;;5.03;;
71360;SDS011;59166;48.908;1.870;2023-02-28T19:14:52;15.98;;;6.47;;
71360;SDS011;59166;48.908;1.870;2023-02-28T19:19:53;18.50;;;8.67;;
71360;SDS011;59166;48.908;1.870;2023-02-28T19:24:55;23.03;;;10.60;;
71360;SDS011;59166;48.908;1.870;2023-02-28T19:29:56;19.55;;;9.25;;
71360;SDS011;59166;48.908;1.870;2023-02-28T19:34:56;20.63;;;9.53;;
71360;SDS011;59166;48.908;1.870;2023-02-28T19:39:58;21.38;;;8.70;;
71360;SDS011;59166;48.908;1.870;2023-02-28T19:44:59;19.27;;;7.73;;
71360;SDS011;59166;48.908;1.870;2023-02-28T19:50:00;22.25;;;9.38;;
71360;SDS011;59166;48.908;1.870;2023-02-28T19:55:02;19.20;;;8.97;;
71360;SDS011;59166;48.908;1.870;2023-02-28T20:00:03;18.50;;;7.78;;
71360;SDS011;59166;48.908;1.870;2023-02-28T20:05:05;16.53;;;8.23;;
71360;SDS011;59166;48.908;1.870;2023-02-28T20:10:08;18.10;;;9.13;;
71360;SDS011;59166;48.908;1.870;2023-02-28T20:15:10;17.75;;;8.40;;
71360;SDS011;59166;48.908;1.870;2023-02-28T20:20:11;17.80;;;8.10;;
71360;SDS011;59166;48.908;1.870;2023-02-28T20:25:14;16.95;;;8.50;;
71360;SDS011;59166;48.908;1.870;2023-02-28T20:30:15;16.23;;;7.88;;
71360;SDS011;59166;48.908;1.870;2023-02-28T20:35:16;18.83;;;8.87;;
71360;SDS011;59166;48.908;1.870;2023-02-28T20:40:18;17.52;;;7.95;;
71360;SDS011;59166;48.908;1.870;2023-02-28T20:45:19;16.33;;;8.10;;
71360;SDS011;59166;48.908;1.870;2023-02-28T20:50:19;17.17;;;7.78;;
71360;SDS011;59166;48.908;1.870;2023-02-28T20:55:22;18.17;;;8.57;;
71360;SDS011;59166;48.908;1.870;2023-02-28T21:00:22;16.55;;;7.72;;
71360;SDS011;59166;48.908;1.870;2023-02-28T21:05:23;13.30;;;5.83;;
71360;SDS011;59166;48.908;1.870;2023-02-28T21:10:25;15.65;;;7.45;;
71360;SDS011;59166;48.908;1.870;2023-02-28T21:15:26;17.63;;;7.70;;
71360;SDS011;59166;48.908;1.870;2023-02-28T21:20:27;16.55;;;7.20;;
71360;SDS011;59166;48.908;1.870;2023-02-28T21:25:29;14.77;;;6.80;;
71360;SDS011;59166;48.908;1.870;2023-02-28T21:30:32;17.60;;;7.73;;
71360;SDS011;59166;48.908;1.870;2023-02-28T21:35:32;15.18;;;6.88;;
71360;SDS011;59166;48.908;1.870;2023-02-28T21:40:34;15.27;;;7.13;;
71360;SDS011;59166;48.908;1.870;2023-02-28T21:45:35;16.23;;;6.77;;
71360;SDS011;59166;48.908;1.870;2023-02-28T21:50:35;17.57;;;7.23;;
71360;SDS011;59166;48.908;1.870;2023-02-28T21:55:37;18.17;;;7.77;;
71360;SDS011;59166;48.908;1.870;2023-02-28T22:00:38;14.68;;;6.82;;
71360;SDS011;59166;48.908;1.870;2023-02-28T22:05:39;16.07;;;7.37;;
71360;SDS011;59166;48.908;1.870;2023-02-28T22:10:41;16.50;;;7.50;;
71360;SDS011;59166;48.908;1.870;2023-02-28T22:15:41;16.15;;;7.13;;
71360;SDS011;59166;48.908;1.870;2023-02-28T22:20:42;15.90;;;6.83;;
71360;SDS011;59166;48.908;1.870;2023-02-28T22:25:44;15.60;;;6.15;;
71360;SDS011;59166;48.908;1.870;2023-02-28T22:30:45;17.00;;;6.93;;
71360;SDS011;59166;48.908;1.870;2023-02-28T22:35:45;15.70;;;6.90;;
71360;SDS011;59166;48.908;1.870;2023-02-28T22:40:47;14.47;;;6.50;;
71360;SDS011;59166;48.908;1.870;2023-02-28T22:45:48;16.20;;;7.40;;
71360;SDS011;59166;48.908;1.870;2023-02-28T22:50:48;14.57;;;6.37;;
71360;SDS011;59166;48.908;1.870;2023-02-28T22:55:54;14.40;;;6.13;;
71360;SDS011;59166;48.908;1.870;2023-02-28T23:00:55;15.27;;;6.65;;
71360;SDS011;59166;48.908;1.870;2023-02-28T23:05:55;16.67;;;6.70;;
71360;SDS011;59166;48.908;1.870;2023-02-28T23:10:57;18.70;;;7.40;;
71360;SDS011;59166;48.908;1.870;2023-02-28T23:15:58;20.13;;;7.30;;
71360;SDS011;59166;48.908;1.870;2023-02-28T23:20:59;15.13;;;6.67;;
71360;SDS011;59166;48.908;1.870;2023-02-28T23:26:01;19.08;;;6.97;;
71360;SDS011;59166;48.908;1.870;2023-02-28T23:31:06;18.55;;;7.43;;
71360;SDS011;59166;48.908;1.870;2023-02-28T23:36:07;16.23;;;6.57;;
71360;SDS011;59166;48.908;1.870;2023-02-28T23:41:10;16.00;;;6.53;;
71360;SDS011;59166;48.908;1.870;2023-02-28T23:46:12;17.50;;;6.30;;
71360;SDS011;59166;48.908;1.870;2023-02-28T23:51:13;16.85;;;6.70;;
71360;SDS011;59166;48.908;1.870;2023-02-28T23:56:17;18.15;;;6.72;;
